sensor_id;sensor_type;location;lat;lon;timestamp;temperature;humidity
18682;DHT22;9471;51.168;4.154;2022-08-16T00:01:58;24.00;99.90
18682;DHT22;9471;51.168;4.154;2022-08-16T00:04:25;23.90;99.90
18682;DHT22;9471;51.168;4.154;2022-08-16T00:06:51;23.80;99.90
18682;DHT22;9471;51.168;4.154;2022-08-16T00:09:19;23.80;99.90
18682;DHT22;9471;51.168;4.154;2022-08-16T00:11:47;23.80;99.90
18682;DHT22;9471;51.168;4.154;2022-08-16T00:14:16;23.80;99.90
18682;DHT22;9471;51.168;4.154;2022-08-16T00:16:44;23.80;99.90
18682;DHT22;9471;51.168;4.154;2022-08-16T00:19:16;23.80;99.90
18682;DHT22;9471;51.168;4.154;2022-08-16T00:21:44;23.90;99.90
18682;DHT22;9471;51.168;4.154;2022-08-16T00:24:12;23.90;99.90
18682;DHT22;9471;51.168;4.154;2022-08-16T00:26:41;23.80;99.90
18682;DHT22;9471;51.168;4.154;2022-08-16T00:29:09;23.70;99.90
18682;DHT22;9471;51.168;4.154;2022-08-16T00:31:36;23.70;99.90
18682;DHT22;9471;51.168;4.154;2022-08-16T00:34:03;23.80;99.90
18682;DHT22;9471;51.168;4.154;2022-08-16T00:36:32;23.80;99.90
18682;DHT22;9471;51.168;4.154;2022-08-16T00:38:59;23.80;99.90
18682;DHT22;9471;51.168;4.154;2022-08-16T00:41:27;23.80;99.90
18682;DHT22;9471;51.168;4.154;2022-08-16T00:43:54;23.80;99.90
18682;DHT22;9471;51.168;4.154;2022-08-16T00:46:24;23.80;99.90
18682;DHT22;9471;51.168;4.154;2022-08-16T00:48:53;23.70;99.90
18682;DHT22;9471;51.168;4.154;2022-08-16T00:51:22;23.70;99.90
18682;DHT22;9471;51.168;4.154;2022-08-16T00:53:51;23.70;99.90
18682;DHT22;9471;51.168;4.154;2022-08-16T00:56:23;23.60;99.90
18682;DHT22;9471;51.168;4.154;2022-08-16T00:58:50;23.60;99.90
18682;DHT22;9471;51.168;4.154;2022-08-16T01:01:19;23.50;99.90
18682;DHT22;9471;51.168;4.154;2022-08-16T01:03:48;23.60;99.90
18682;DHT22;9471;51.168;4.154;2022-08-16T01:06:16;23.60;99.90
18682;DHT22;9471;51.168;4.154;2022-08-16T01:08:46;23.70;99.90
18682;DHT22;9471;51.168;4.154;2022-08-16T01:11:15;23.70;99.90
18682;DHT22;9471;51.168;4.154;2022-08-16T01:13:42;23.70;99.90
18682;DHT22;9471;51.168;4.154;2022-08-16T01:16:15;23.60;99.90
18682;DHT22;9471;51.168;4.154;2022-08-16T01:18:52;23.50;99.90
18682;DHT22;9471;51.168;4.154;2022-08-16T01:21:30;23.50;99.90
18682;DHT22;9471;51.168;4.154;2022-08-16T01:24:16;23.50;99.90
18682;DHT22;9471;51.168;4.154;2022-08-16T01:26:45;23.50;99.90
18682;DHT22;9471;51.168;4.154;2022-08-16T01:29:18;23.50;99.90
18682;DHT22;9471;51.168;4.154;2022-08-16T01:31:47;23.40;99.90
18682;DHT22;9471;51.168;4.154;2022-08-16T01:34:14;23.40;99.90
18682;DHT22;9471;51.168;4.154;2022-08-16T01:36:42;23.40;99.90
18682;DHT22;9471;51.168;4.154;2022-08-16T01:39:13;23.30;99.90
18682;DHT22;9471;51.168;4.154;2022-08-16T01:41:41;23.30;99.90
18682;DHT22;9471;51.168;4.154;2022-08-16T01:44:08;23.20;99.90
18682;DHT22;9471;51.168;4.154;2022-08-16T01:46:37;23.10;99.90
18682;DHT22;9471;51.168;4.154;2022-08-16T01:49:08;23.10;99.90
18682;DHT22;9471;51.168;4.154;2022-08-16T01:51:36;23.20;99.90
18682;DHT22;9471;51.168;4.154;2022-08-16T01:54:04;23.10;99.90
18682;DHT22;9471;51.168;4.154;2022-08-16T01:56:33;23.00;99.90
18682;DHT22;9471;51.168;4.154;2022-08-16T01:59:02;23.00;99.90
18682;DHT22;9471;51.168;4.154;2022-08-16T02:01:30;23.00;99.90
18682;DHT22;9471;51.168;4.154;2022-08-16T02:03:57;23.00;99.90
18682;DHT22;9471;51.168;4.154;2022-08-16T02:06:24;23.00;99.90
18682;DHT22;9471;51.168;4.154;2022-08-16T02:08:52;22.90;99.90
18682;DHT22;9471;51.168;4.154;2022-08-16T02:11:20;22.70;99.90
18682;DHT22;9471;51.168;4.154;2022-08-16T02:13:49;22.60;99.90
18682;DHT22;9471;51.168;4.154;2022-08-16T02:16:16;22.60;99.90
18682;DHT22;9471;51.168;4.154;2022-08-16T02:18:43;22.60;99.90
18682;DHT22;9471;51.168;4.154;2022-08-16T02:21:11;22.60;99.90
18682;DHT22;9471;51.168;4.154;2022-08-16T02:23:39;22.70;99.90
18682;DHT22;9471;51.168;4.154;2022-08-16T02:26:06;22.70;99.90
18682;DHT22;9471;51.168;4.154;2022-08-16T02:28:34;22.60;99.90
18682;DHT22;9471;51.168;4.154;2022-08-16T02:31:06;22.70;99.90
18682;DHT22;9471;51.168;4.154;2022-08-16T02:33:35;22.70;99.90
18682;DHT22;9471;51.168;4.154;2022-08-16T02:36:03;22.60;99.90
18682;DHT22;9471;51.168;4.154;2022-08-16T02:38:31;22.60;99.90
18682;DHT22;9471;51.168;4.154;2022-08-16T02:41:00;22.50;99.90
18682;DHT22;9471;51.168;4.154;2022-08-16T02:43:29;22.50;99.90
18682;DHT22;9471;51.168;4.154;2022-08-16T02:45:58;22.50;99.90
18682;DHT22;9471;51.168;4.154;2022-08-16T02:48:26;22.50;99.90
18682;DHT22;9471;51.168;4.154;2022-08-16T02:50:55;22.50;99.90
18682;DHT22;9471;51.168;4.154;2022-08-16T02:53:22;22.50;99.90
18682;DHT22;9471;51.168;4.154;2022-08-16T02:55:50;22.60;99.90
18682;DHT22;9471;51.168;4.154;2022-08-16T02:58:18;22.60;99.90
18682;DHT22;9471;51.168;4.154;2022-08-16T03:00:45;22.60;99.90
18682;DHT22;9471;51.168;4.154;2022-08-16T03:03:12;22.50;99.90
18682;DHT22;9471;51.168;4.154;2022-08-16T03:05:40;22.50;99.90
18682;DHT22;9471;51.168;4.154;2022-08-16T03:08:11;22.40;99.90
18682;DHT22;9471;51.168;4.154;2022-08-16T03:10:39;22.30;99.90
18682;DHT22;9471;51.168;4.154;2022-08-16T03:13:06;22.30;99.90
18682;DHT22;9471;51.168;4.154;2022-08-16T03:15:33;22.30;99.90
18682;DHT22;9471;51.168;4.154;2022-08-16T03:18:00;22.30;99.90
18682;DHT22;9471;51.168;4.154;2022-08-16T03:20:28;22.30;99.90
18682;DHT22;9471;51.168;4.154;2022-08-16T03:22:56;22.20;99.90
18682;DHT22;9471;51.168;4.154;2022-08-16T03:25:23;22.20;99.90
18682;DHT22;9471;51.168;4.154;2022-08-16T03:27:50;22.20;99.90
18682;DHT22;9471;51.168;4.154;2022-08-16T03:30:20;22.20;99.90
18682;DHT22;9471;51.168;4.154;2022-08-16T03:32:48;22.20;99.90
18682;DHT22;9471;51.168;4.154;2022-08-16T03:35:17;22.10;99.90
18682;DHT22;9471;51.168;4.154;2022-08-16T03:37:45;22.00;99.90
18682;DHT22;9471;51.168;4.154;2022-08-16T03:40:14;22.00;99.90
18682;DHT22;9471;51.168;4.154;2022-08-16T03:42:41;22.00;99.90
18682;DHT22;9471;51.168;4.154;2022-08-16T03:45:08;22.10;99.90
18682;DHT22;9471;51.168;4.154;2022-08-16T03:47:36;22.10;99.90
18682;DHT22;9471;51.168;4.154;2022-08-16T03:50:03;22.00;99.90
18682;DHT22;9471;51.168;4.154;2022-08-16T03:52:31;22.00;99.90
18682;DHT22;9471;51.168;4.154;2022-08-16T03:55:00;22.00;99.90
18682;DHT22;9471;51.168;4.154;2022-08-16T03:57:29;21.90;99.90
18682;DHT22;9471;51.168;4.154;2022-08-16T03:59:56;21.90;99.90
18682;DHT22;9471;51.168;4.154;2022-08-16T04:02:23;21.90;99.90
18682;DHT22;9471;51.168;4.154;2022-08-16T04:04:50;22.10;99.90
18682;DHT22;9471;51.168;4.154;2022-08-16T04:07:18;22.00;99.90
18682;DHT22;9471;51.168;4.154;2022-08-16T04:09:45;21.80;99.90
18682;DHT22;9471;51.168;4.154;2022-08-16T04:12:12;21.80;99.90
18682;DHT22;9471;51.168;4.154;2022-08-16T04:14:40;21.80;99.90
18682;DHT22;9471;51.168;4.154;2022-08-16T04:17:08;21.80;99.90
18682;DHT22;9471;51.168;4.154;2022-08-16T04:19:34;21.90;99.90
18682;DHT22;9471;51.168;4.154;2022-08-16T04:22:02;21.90;99.90
18682;DHT22;9471;51.168;4.154;2022-08-16T04:24:29;21.80;99.90
18682;DHT22;9471;51.168;4.154;2022-08-16T04:26:55;21.70;99.90
18682;DHT22;9471;51.168;4.154;2022-08-16T04:29:22;21.80;99.90
18682;DHT22;9471;51.168;4.154;2022-08-16T04:31:52;21.80;99.90
18682;DHT22;9471;51.168;4.154;2022-08-16T04:34:19;21.80;99.90
18682;DHT22;9471;51.168;4.154;2022-08-16T04:36:47;21.80;99.90
18682;DHT22;9471;51.168;4.154;2022-08-16T04:39:14;21.70;99.90
18682;DHT22;9471;51.168;4.154;2022-08-16T04:41:41;21.80;99.90
18682;DHT22;9471;51.168;4.154;2022-08-16T04:44:08;21.80;99.90
18682;DHT22;9471;51.168;4.154;2022-08-16T04:46:36;21.90;99.90
18682;DHT22;9471;51.168;4.154;2022-08-16T04:49:04;21.80;99.90
18682;DHT22;9471;51.168;4.154;2022-08-16T04:51:32;21.70;99.90
18682;DHT22;9471;51.168;4.154;2022-08-16T04:54:00;21.70;99.90
18682;DHT22;9471;51.168;4.154;2022-08-16T04:56:26;21.70;99.90
18682;DHT22;9471;51.168;4.154;2022-08-16T04:58:53;21.60;99.90
18682;DHT22;9471;51.168;4.154;2022-08-16T05:01:23;21.70;99.90
18682;DHT22;9471;51.168;4.154;2022-08-16T05:03:50;21.90;99.90
18682;DHT22;9471;51.168;4.154;2022-08-16T05:06:18;21.90;99.90
18682;DHT22;9471;51.168;4.154;2022-08-16T05:08:45;22.10;99.90
18682;DHT22;9471;51.168;4.154;2022-08-16T05:11:13;22.00;99.90
18682;DHT22;9471;51.168;4.154;2022-08-16T05:13:45;21.90;99.90
18682;DHT22;9471;51.168;4.154;2022-08-16T05:16:15;22.00;99.90
18682;DHT22;9471;51.168;4.154;2022-08-16T05:18:42;22.00;99.90
18682;DHT22;9471;51.168;4.154;2022-08-16T05:21:09;22.00;99.90
18682;DHT22;9471;51.168;4.154;2022-08-16T05:23:37;22.10;99.90
18682;DHT22;9471;51.168;4.154;2022-08-16T05:26:04;22.10;99.90
18682;DHT22;9471;51.168;4.154;2022-08-16T05:28:31;22.00;99.90
18682;DHT22;9471;51.168;4.154;2022-08-16T05:30:58;22.10;99.90
18682;DHT22;9471;51.168;4.154;2022-08-16T05:33:26;22.10;99.90
18682;DHT22;9471;51.168;4.154;2022-08-16T05:35:53;22.20;99.90
18682;DHT22;9471;51.168;4.154;2022-08-16T05:38:20;22.10;99.90
18682;DHT22;9471;51.168;4.154;2022-08-16T05:40:53;22.10;99.90
18682;DHT22;9471;51.168;4.154;2022-08-16T05:43:20;21.90;99.90
18682;DHT22;9471;51.168;4.154;2022-08-16T05:45:48;21.90;99.90
18682;DHT22;9471;51.168;4.154;2022-08-16T05:48:15;22.00;99.90
18682;DHT22;9471;51.168;4.154;2022-08-16T05:50:42;22.00;99.90
18682;DHT22;9471;51.168;4.154;2022-08-16T05:53:09;21.90;99.90
18682;DHT22;9471;51.168;4.154;2022-08-16T05:55:36;21.90;99.90
18682;DHT22;9471;51.168;4.154;2022-08-16T05:58:04;22.00;99.90
18682;DHT22;9471;51.168;4.154;2022-08-16T06:00:31;22.10;99.90
18682;DHT22;9471;51.168;4.154;2022-08-16T06:02:58;22.00;99.90
18682;DHT22;9471;51.168;4.154;2022-08-16T06:05:25;22.10;99.90
18682;DHT22;9471;51.168;4.154;2022-08-16T06:07:55;22.20;99.90
18682;DHT22;9471;51.168;4.154;2022-08-16T06:10:22;22.30;99.90
18682;DHT22;9471;51.168;4.154;2022-08-16T06:12:49;22.20;99.90
18682;DHT22;9471;51.168;4.154;2022-08-16T06:15:21;22.30;99.90
18682;DHT22;9471;51.168;4.154;2022-08-16T06:17:48;22.20;99.90
18682;DHT22;9471;51.168;4.154;2022-08-16T06:20:18;22.20;99.90
18682;DHT22;9471;51.168;4.154;2022-08-16T06:22:46;22.20;99.90
18682;DHT22;9471;51.168;4.154;2022-08-16T06:25:14;22.30;99.90
18682;DHT22;9471;51.168;4.154;2022-08-16T06:27:42;22.40;99.90
18682;DHT22;9471;51.168;4.154;2022-08-16T06:30:10;22.60;99.90
18682;DHT22;9471;51.168;4.154;2022-08-16T06:32:39;22.60;99.90
18682;DHT22;9471;51.168;4.154;2022-08-16T06:35:08;22.60;99.90
18682;DHT22;9471;51.168;4.154;2022-08-16T06:37:36;22.60;99.90
18682;DHT22;9471;51.168;4.154;2022-08-16T06:40:06;22.70;99.90
18682;DHT22;9471;51.168;4.154;2022-08-16T06:42:33;22.70;99.90
18682;DHT22;9471;51.168;4.154;2022-08-16T06:45:00;22.90;99.90
18682;DHT22;9471;51.168;4.154;2022-08-16T06:47:27;22.80;99.90
18682;DHT22;9471;51.168;4.154;2022-08-16T06:49:56;22.80;99.90
18682;DHT22;9471;51.168;4.154;2022-08-16T06:52:22;23.00;99.90
18682;DHT22;9471;51.168;4.154;2022-08-16T06:54:49;23.00;99.90
18682;DHT22;9471;51.168;4.154;2022-08-16T06:57:16;23.00;99.90
18682;DHT22;9471;51.168;4.154;2022-08-16T06:59:44;23.10;99.90
18682;DHT22;9471;51.168;4.154;2022-08-16T07:02:12;23.40;99.90
18682;DHT22;9471;51.168;4.154;2022-08-16T07:04:39;23.50;99.90
18682;DHT22;9471;51.168;4.154;2022-08-16T07:07:08;23.60;99.90
18682;DHT22;9471;51.168;4.154;2022-08-16T07:09:35;23.50;99.90
18682;DHT22;9471;51.168;4.154;2022-08-16T07:12:03;23.70;99.90
18682;DHT22;9471;51.168;4.154;2022-08-16T07:14:31;23.60;99.90
18682;DHT22;9471;51.168;4.154;2022-08-16T07:16:58;23.80;99.90
18682;DHT22;9471;51.168;4.154;2022-08-16T07:19:26;23.70;99.90
18682;DHT22;9471;51.168;4.154;2022-08-16T07:21:53;23.90;99.90
18682;DHT22;9471;51.168;4.154;2022-08-16T07:24:21;24.00;99.90
18682;DHT22;9471;51.168;4.154;2022-08-16T07:26:48;24.30;99.90
18682;DHT22;9471;51.168;4.154;2022-08-16T07:29:15;24.30;99.90
18682;DHT22;9471;51.168;4.154;2022-08-16T07:31:48;24.40;99.90
18682;DHT22;9471;51.168;4.154;2022-08-16T07:34:15;24.50;99.90
18682;DHT22;9471;51.168;4.154;2022-08-16T07:36:42;24.50;99.90
18682;DHT22;9471;51.168;4.154;2022-08-16T07:39:10;24.50;99.90
18682;DHT22;9471;51.168;4.154;2022-08-16T07:41:39;24.60;99.90
18682;DHT22;9471;51.168;4.154;2022-08-16T07:44:06;24.60;99.90
18682;DHT22;9471;51.168;4.154;2022-08-16T07:46:33;24.60;99.90
18682;DHT22;9471;51.168;4.154;2022-08-16T07:49:00;24.70;99.90
18682;DHT22;9471;51.168;4.154;2022-08-16T07:51:27;25.00;99.90
18682;DHT22;9471;51.168;4.154;2022-08-16T07:53:57;25.10;99.90
18682;DHT22;9471;51.168;4.154;2022-08-16T07:56:25;25.30;99.90
18682;DHT22;9471;51.168;4.154;2022-08-16T07:58:54;25.50;99.90
18682;DHT22;9471;51.168;4.154;2022-08-16T08:01:22;25.50;99.90
18682;DHT22;9471;51.168;4.154;2022-08-16T08:03:49;25.40;99.90
18682;DHT22;9471;51.168;4.154;2022-08-16T08:06:17;25.40;99.90
18682;DHT22;9471;51.168;4.154;2022-08-16T08:08:45;25.40;99.90
18682;DHT22;9471;51.168;4.154;2022-08-16T08:11:12;25.60;99.90
18682;DHT22;9471;51.168;4.154;2022-08-16T08:13:39;25.80;99.90
18682;DHT22;9471;51.168;4.154;2022-08-16T08:16:07;25.90;99.90
18682;DHT22;9471;51.168;4.154;2022-08-16T08:18:35;25.80;99.90
18682;DHT22;9471;51.168;4.154;2022-08-16T08:21:05;26.00;99.90
18682;DHT22;9471;51.168;4.154;2022-08-16T08:23:32;26.20;99.90
18682;DHT22;9471;51.168;4.154;2022-08-16T08:26:00;26.50;99.90
18682;DHT22;9471;51.168;4.154;2022-08-16T08:28:28;26.60;99.90
18682;DHT22;9471;51.168;4.154;2022-08-16T08:30:56;26.70;99.90
18682;DHT22;9471;51.168;4.154;2022-08-16T08:33:25;26.70;99.90
18682;DHT22;9471;51.168;4.154;2022-08-16T08:35:54;26.70;99.90
18682;DHT22;9471;51.168;4.154;2022-08-16T08:38:21;26.80;99.90
18682;DHT22;9471;51.168;4.154;2022-08-16T08:40:49;26.90;99.90
18682;DHT22;9471;51.168;4.154;2022-08-16T08:43:15;27.00;99.90
18682;DHT22;9471;51.168;4.154;2022-08-16T08:45:42;27.00;99.90
18682;DHT22;9471;51.168;4.154;2022-08-16T08:48:09;26.90;99.90
18682;DHT22;9471;51.168;4.154;2022-08-16T08:50:38;26.80;99.90
18682;DHT22;9471;51.168;4.154;2022-08-16T08:53:06;26.90;99.90
18682;DHT22;9471;51.168;4.154;2022-08-16T08:55:33;26.90;99.90
18682;DHT22;9471;51.168;4.154;2022-08-16T08:58:00;26.80;99.90
18682;DHT22;9471;51.168;4.154;2022-08-16T09:00:28;26.90;99.90
18682;DHT22;9471;51.168;4.154;2022-08-16T09:02:56;26.80;99.90
18682;DHT22;9471;51.168;4.154;2022-08-16T09:05:24;26.70;99.90
18682;DHT22;9471;51.168;4.154;2022-08-16T09:07:53;26.70;99.90
18682;DHT22;9471;51.168;4.154;2022-08-16T09:10:21;26.90;99.90
18682;DHT22;9471;51.168;4.154;2022-08-16T09:12:48;27.00;99.90
18682;DHT22;9471;51.168;4.154;2022-08-16T09:15:16;27.10;99.90
18682;DHT22;9471;51.168;4.154;2022-08-16T09:17:43;27.40;99.90
18682;DHT22;9471;51.168;4.154;2022-08-16T09:20:11;27.30;99.90
18682;DHT22;9471;51.168;4.154;2022-08-16T09:22:39;27.20;99.90
18682;DHT22;9471;51.168;4.154;2022-08-16T09:25:08;27.50;99.90
18682;DHT22;9471;51.168;4.154;2022-08-16T09:27:35;27.70;99.90
18682;DHT22;9471;51.168;4.154;2022-08-16T09:30:03;27.60;99.90
18682;DHT22;9471;51.168;4.154;2022-08-16T09:32:30;27.50;99.90
18682;DHT22;9471;51.168;4.154;2022-08-16T09:34:58;27.70;99.90
18682;DHT22;9471;51.168;4.154;2022-08-16T09:37:26;27.90;99.90
18682;DHT22;9471;51.168;4.154;2022-08-16T09:39:53;28.10;99.90
18682;DHT22;9471;51.168;4.154;2022-08-16T09:42:22;28.00;99.90
18682;DHT22;9471;51.168;4.154;2022-08-16T09:44:48;28.00;99.90
18682;DHT22;9471;51.168;4.154;2022-08-16T09:47:15;28.10;99.90
18682;DHT22;9471;51.168;4.154;2022-08-16T09:49:42;28.20;99.90
18682;DHT22;9471;51.168;4.154;2022-08-16T09:52:10;28.00;99.90
18682;DHT22;9471;51.168;4.154;2022-08-16T09:54:38;28.10;99.90
18682;DHT22;9471;51.168;4.154;2022-08-16T09:57:05;28.30;99.90
18682;DHT22;9471;51.168;4.154;2022-08-16T09:59:33;28.40;99.10
18682;DHT22;9471;51.168;4.154;2022-08-16T10:02:00;28.60;96.50
18682;DHT22;9471;51.168;4.154;2022-08-16T10:04:27;28.80;95.30
18682;DHT22;9471;51.168;4.154;2022-08-16T10:06:55;28.80;95.20
18682;DHT22;9471;51.168;4.154;2022-08-16T10:09:23;28.80;95.10
18682;DHT22;9471;51.168;4.154;2022-08-16T10:11:53;29.00;94.50
18682;DHT22;9471;51.168;4.154;2022-08-16T10:14:39;29.00;92.90
18682;DHT22;9471;51.168;4.154;2022-08-16T10:17:06;28.70;94.10
18682;DHT22;9471;51.168;4.154;2022-08-16T10:19:35;28.50;92.80
18682;DHT22;9471;51.168;4.154;2022-08-16T10:22:02;28.80;92.10
18682;DHT22;9471;51.168;4.154;2022-08-16T10:24:30;28.70;91.40
18682;DHT22;9471;51.168;4.154;2022-08-16T10:26:57;28.80;91.30
18682;DHT22;9471;51.168;4.154;2022-08-16T10:29:24;28.70;91.00
18682;DHT22;9471;51.168;4.154;2022-08-16T10:31:52;28.60;90.50
18682;DHT22;9471;51.168;4.154;2022-08-16T10:34:19;28.80;90.00
18682;DHT22;9471;51.168;4.154;2022-08-16T10:36:46;28.90;89.10
18682;DHT22;9471;51.168;4.154;2022-08-16T10:39:13;29.10;86.30
18682;DHT22;9471;51.168;4.154;2022-08-16T10:41:40;29.20;88.90
18682;DHT22;9471;51.168;4.154;2022-08-16T10:44:07;29.10;87.30
18682;DHT22;9471;51.168;4.154;2022-08-16T10:46:34;29.10;85.30
18682;DHT22;9471;51.168;4.154;2022-08-16T10:49:02;29.20;84.00
18682;DHT22;9471;51.168;4.154;2022-08-16T10:51:29;29.30;81.40
18682;DHT22;9471;51.168;4.154;2022-08-16T10:53:57;29.20;82.10
18682;DHT22;9471;51.168;4.154;2022-08-16T10:56:24;29.30;81.50
18682;DHT22;9471;51.168;4.154;2022-08-16T10:58:51;29.50;81.10
18682;DHT22;9471;51.168;4.154;2022-08-16T11:01:22;29.70;81.30
18682;DHT22;9471;51.168;4.154;2022-08-16T11:03:51;29.90;80.80
18682;DHT22;9471;51.168;4.154;2022-08-16T11:06:20;29.90;77.50
18682;DHT22;9471;51.168;4.154;2022-08-16T11:08:47;29.70;77.00
18682;DHT22;9471;51.168;4.154;2022-08-16T11:11:14;29.70;76.00
18682;DHT22;9471;51.168;4.154;2022-08-16T11:13:41;29.70;75.20
18682;DHT22;9471;51.168;4.154;2022-08-16T11:16:10;29.60;76.00
18682;DHT22;9471;51.168;4.154;2022-08-16T11:18:37;29.50;75.80
18682;DHT22;9471;51.168;4.154;2022-08-16T11:21:06;29.50;75.00
18682;DHT22;9471;51.168;4.154;2022-08-16T11:23:34;29.70;74.80
18682;DHT22;9471;51.168;4.154;2022-08-16T11:26:01;29.80;73.90
18682;DHT22;9471;51.168;4.154;2022-08-16T11:28:29;29.90;72.50
18682;DHT22;9471;51.168;4.154;2022-08-16T11:30:57;30.00;72.30
18682;DHT22;9471;51.168;4.154;2022-08-16T11:33:24;30.00;71.80
18682;DHT22;9471;51.168;4.154;2022-08-16T11:35:51;29.80;73.20
18682;DHT22;9471;51.168;4.154;2022-08-16T11:38:20;29.80;73.20
18682;DHT22;9471;51.168;4.154;2022-08-16T11:40:51;30.10;71.70
18682;DHT22;9471;51.168;4.154;2022-08-16T11:43:24;30.40;71.00
18682;DHT22;9471;51.168;4.154;2022-08-16T11:45:53;30.60;70.60
18682;DHT22;9471;51.168;4.154;2022-08-16T11:48:23;30.60;70.40
18682;DHT22;9471;51.168;4.154;2022-08-16T11:50:50;30.60;70.10
18682;DHT22;9471;51.168;4.154;2022-08-16T11:53:18;30.40;71.10
18682;DHT22;9471;51.168;4.154;2022-08-16T11:55:46;30.20;71.70
18682;DHT22;9471;51.168;4.154;2022-08-16T11:58:15;30.10;71.70
18682;DHT22;9471;51.168;4.154;2022-08-16T12:00:44;30.30;71.70
18682;DHT22;9471;51.168;4.154;2022-08-16T12:03:12;29.90;71.20
18682;DHT22;9471;51.168;4.154;2022-08-16T12:05:41;30.10;71.20
18682;DHT22;9471;51.168;4.154;2022-08-16T12:08:10;30.20;70.40
18682;DHT22;9471;51.168;4.154;2022-08-16T12:10:38;30.30;70.80
18682;DHT22;9471;51.168;4.154;2022-08-16T12:13:06;30.40;70.40
18682;DHT22;9471;51.168;4.154;2022-08-16T12:15:34;30.70;69.80
18682;DHT22;9471;51.168;4.154;2022-08-16T12:18:02;30.80;69.10
18682;DHT22;9471;51.168;4.154;2022-08-16T12:20:31;30.80;69.30
18682;DHT22;9471;51.168;4.154;2022-08-16T12:23:06;30.90;68.60
18682;DHT22;9471;51.168;4.154;2022-08-16T12:25:34;30.90;68.80
18682;DHT22;9471;51.168;4.154;2022-08-16T12:28:03;30.70;69.40
18682;DHT22;9471;51.168;4.154;2022-08-16T12:30:34;30.50;70.80
18682;DHT22;9471;51.168;4.154;2022-08-16T12:33:02;30.80;70.10
18682;DHT22;9471;51.168;4.154;2022-08-16T12:35:30;30.90;69.40
18682;DHT22;9471;51.168;4.154;2022-08-16T12:37:59;31.00;69.30
18682;DHT22;9471;51.168;4.154;2022-08-16T12:40:31;31.10;69.00
18682;DHT22;9471;51.168;4.154;2022-08-16T12:42:59;31.30;67.70
18682;DHT22;9471;51.168;4.154;2022-08-16T12:45:29;31.30;66.90
18682;DHT22;9471;51.168;4.154;2022-08-16T12:48:00;31.40;66.90
18682;DHT22;9471;51.168;4.154;2022-08-16T12:50:45;31.50;66.30
18682;DHT22;9471;51.168;4.154;2022-08-16T12:53:13;31.50;65.20
18682;DHT22;9471;51.168;4.154;2022-08-16T12:55:41;31.70;66.20
18682;DHT22;9471;51.168;4.154;2022-08-16T12:58:09;31.80;65.00
18682;DHT22;9471;51.168;4.154;2022-08-16T13:00:36;31.70;65.30
18682;DHT22;9471;51.168;4.154;2022-08-16T13:03:05;31.60;64.90
18682;DHT22;9471;51.168;4.154;2022-08-16T13:05:34;31.50;64.90
18682;DHT22;9471;51.168;4.154;2022-08-16T13:08:06;31.40;63.40
18682;DHT22;9471;51.168;4.154;2022-08-16T13:10:33;31.60;64.30
18682;DHT22;9471;51.168;4.154;2022-08-16T13:13:00;31.50;64.50
18682;DHT22;9471;51.168;4.154;2022-08-16T13:15:28;31.60;64.40
18682;DHT22;9471;51.168;4.154;2022-08-16T13:17:55;31.20;64.00
18682;DHT22;9471;51.168;4.154;2022-08-16T13:20:25;31.10;64.80
18682;DHT22;9471;51.168;4.154;2022-08-16T13:22:58;31.20;65.50
18682;DHT22;9471;51.168;4.154;2022-08-16T13:25:27;31.00;66.50
18682;DHT22;9471;51.168;4.154;2022-08-16T13:27:55;30.90;64.30
18682;DHT22;9471;51.168;4.154;2022-08-16T13:30:22;31.00;63.30
18682;DHT22;9471;51.168;4.154;2022-08-16T13:32:51;31.30;62.40
18682;DHT22;9471;51.168;4.154;2022-08-16T13:35:18;31.50;62.00
18682;DHT22;9471;51.168;4.154;2022-08-16T13:37:46;31.60;62.20
18682;DHT22;9471;51.168;4.154;2022-08-16T13:40:14;31.70;60.50
18682;DHT22;9471;51.168;4.154;2022-08-16T13:42:41;31.80;59.60
18682;DHT22;9471;51.168;4.154;2022-08-16T13:45:09;31.80;59.70
18682;DHT22;9471;51.168;4.154;2022-08-16T13:47:37;32.00;59.30
18682;DHT22;9471;51.168;4.154;2022-08-16T13:50:05;32.10;58.50
18682;DHT22;9471;51.168;4.154;2022-08-16T13:52:32;32.10;58.20
18682;DHT22;9471;51.168;4.154;2022-08-16T13:55:01;32.00;58.10
18682;DHT22;9471;51.168;4.154;2022-08-16T13:57:28;32.00;57.90
18682;DHT22;9471;51.168;4.154;2022-08-16T13:59:55;32.10;57.80
18682;DHT22;9471;51.168;4.154;2022-08-16T14:02:22;32.10;58.30
18682;DHT22;9471;51.168;4.154;2022-08-16T14:04:49;32.30;58.50
18682;DHT22;9471;51.168;4.154;2022-08-16T14:07:16;32.40;56.80
18682;DHT22;9471;51.168;4.154;2022-08-16T14:09:43;32.40;56.30
18682;DHT22;9471;51.168;4.154;2022-08-16T14:12:18;32.20;56.60
18682;DHT22;9471;51.168;4.154;2022-08-16T14:14:46;32.20;56.60
18682;DHT22;9471;51.168;4.154;2022-08-16T14:17:16;32.20;56.20
18682;DHT22;9471;51.168;4.154;2022-08-16T14:19:43;32.10;56.60
18682;DHT22;9471;51.168;4.154;2022-08-16T14:22:15;32.30;56.30
18682;DHT22;9471;51.168;4.154;2022-08-16T14:24:43;32.40;55.90
18682;DHT22;9471;51.168;4.154;2022-08-16T14:27:11;32.40;55.80
18682;DHT22;9471;51.168;4.154;2022-08-16T14:29:39;32.40;55.20
18682;DHT22;9471;51.168;4.154;2022-08-16T14:32:07;32.40;55.00
18682;DHT22;9471;51.168;4.154;2022-08-16T14:34:34;32.50;54.70
18682;DHT22;9471;51.168;4.154;2022-08-16T14:37:01;32.60;54.20
18682;DHT22;9471;51.168;4.154;2022-08-16T14:39:30;32.90;54.20
18682;DHT22;9471;51.168;4.154;2022-08-16T14:42:03;33.00;53.90
18682;DHT22;9471;51.168;4.154;2022-08-16T14:44:31;33.30;53.70
18682;DHT22;9471;51.168;4.154;2022-08-16T14:46:59;33.60;53.20
18682;DHT22;9471;51.168;4.154;2022-08-16T14:49:27;33.50;53.10
18682;DHT22;9471;51.168;4.154;2022-08-16T14:51:58;33.60;52.90
18682;DHT22;9471;51.168;4.154;2022-08-16T14:54:25;33.70;52.80
18682;DHT22;9471;51.168;4.154;2022-08-16T14:56:52;33.90;52.30
18682;DHT22;9471;51.168;4.154;2022-08-16T14:59:19;34.00;51.60
18682;DHT22;9471;51.168;4.154;2022-08-16T15:01:46;33.80;52.20
18682;DHT22;9471;51.168;4.154;2022-08-16T15:04:15;33.70;52.60
18682;DHT22;9471;51.168;4.154;2022-08-16T15:06:41;33.60;52.80
18682;DHT22;9471;51.168;4.154;2022-08-16T15:09:08;33.30;52.50
18682;DHT22;9471;51.168;4.154;2022-08-16T15:11:38;33.10;52.80
18682;DHT22;9471;51.168;4.154;2022-08-16T15:14:05;33.10;52.70
18682;DHT22;9471;51.168;4.154;2022-08-16T15:16:33;32.90;52.80
18682;DHT22;9471;51.168;4.154;2022-08-16T15:19:00;32.80;52.90
18682;DHT22;9471;51.168;4.154;2022-08-16T15:21:29;32.60;53.20
18682;DHT22;9471;51.168;4.154;2022-08-16T15:23:57;32.40;53.20
18682;DHT22;9471;51.168;4.154;2022-08-16T15:26:24;32.40;53.90
18682;DHT22;9471;51.168;4.154;2022-08-16T15:28:51;32.20;54.20
18682;DHT22;9471;51.168;4.154;2022-08-16T15:31:19;32.10;54.50
18682;DHT22;9471;51.168;4.154;2022-08-16T15:33:48;32.30;54.40
18682;DHT22;9471;51.168;4.154;2022-08-16T15:36:17;32.30;54.40
18682;DHT22;9471;51.168;4.154;2022-08-16T15:38:46;32.10;54.30
18682;DHT22;9471;51.168;4.154;2022-08-16T15:44:12;32.00;54.70
18682;DHT22;9471;51.168;4.154;2022-08-16T15:46:40;31.70;55.00
18682;DHT22;9471;51.168;4.154;2022-08-16T15:49:07;31.30;55.70
18682;DHT22;9471;51.168;4.154;2022-08-16T15:51:35;31.30;56.10
18682;DHT22;9471;51.168;4.154;2022-08-16T15:54:04;31.20;56.30